createdAt,value
2024-04-18T00:00:39.882Z,4.09
2024-04-18T00:03:09.826Z,4.08
2024-04-18T00:05:39.670Z,4.08
2024-04-18T00:08:07.058Z,4.24
2024-04-18T00:10:36.917Z,4.27
2024-04-18T00:13:04.521Z,4.25
2024-04-18T00:15:34.459Z,4.08
2024-04-18T00:18:01.805Z,4.08
2024-04-18T00:20:34.378Z,4.16
2024-04-18T00:23:01.527Z,4.13
2024-04-18T00:25:35.227Z,3.98
2024-04-18T00:28:02.486Z,4.01
2024-04-18T00:30:32.362Z,3.87
2024-04-18T00:32:59.694Z,3.94
2024-04-18T00:35:29.541Z,3.95
2024-04-18T00:37:59.313Z,3.79
2024-04-18T00:40:29.617Z,3.69
2024-04-18T00:42:57.112Z,3.63
2024-04-18T00:45:27.394Z,3.64
2024-04-18T00:47:54.969Z,3.78
2024-04-18T00:50:25.089Z,3.41
2024-04-18T00:52:52.741Z,3.70
2024-04-18T00:55:25.643Z,3.85
2024-04-18T00:57:52.851Z,3.91
2024-04-18T01:00:23.462Z,3.81
2024-04-18T01:02:50.738Z,3.85
2024-04-18T01:05:21.288Z,3.82
2024-04-18T01:07:48.531Z,3.78
2024-04-18T01:10:18.420Z,3.70
2024-04-18T01:12:56.803Z,3.50
2024-04-18T01:15:26.953Z,3.66
2024-04-18T01:17:54.245Z,3.57
2024-04-18T01:20:28.107Z,3.41
2024-04-18T01:22:55.332Z,3.35
2024-04-18T01:25:25.251Z,3.39
2024-04-18T01:27:55.051Z,3.54
2024-04-18T01:30:24.898Z,3.60
2024-04-18T01:32:52.168Z,3.46
2024-04-18T01:35:22.152Z,3.50
2024-04-18T01:37:49.463Z,3.38
2024-04-18T01:40:19.778Z,3.44
2024-04-18T01:42:47.043Z,3.46
2024-04-18T01:45:20.530Z,3.49
2024-04-18T01:47:48.307Z,3.56
2024-04-18T01:50:18.355Z,3.51
2024-04-18T01:52:45.481Z,3.30
2024-04-18T01:55:15.585Z,3.33
2024-04-18T01:57:42.944Z,3.25
2024-04-18T02:00:14.107Z,3.29
2024-04-18T02:02:48.374Z,3.17
2024-04-18T02:05:15.864Z,3.25
2024-04-18T02:07:46.418Z,3.27
2024-04-18T02:10:13.656Z,3.26
2024-04-18T02:12:43.516Z,3.36
2024-04-18T02:15:10.840Z,3.28
2024-04-18T02:17:40.847Z,3.22
2024-04-18T02:20:10.990Z,3.22
2024-04-18T02:22:40.851Z,3.23
2024-04-18T02:25:10.039Z,3.00
2024-04-18T02:27:42.949Z,3.04
2024-04-18T02:30:12.026Z,3.04
2024-04-18T02:32:42.520Z,3.05
2024-04-18T02:35:12.414Z,3.01
2024-04-18T02:37:43.204Z,3.01
2024-04-18T02:40:12.886Z,2.89
2024-04-18T02:42:42.833Z,3.16
2024-04-18T02:45:10.113Z,2.94
2024-04-18T02:47:40.443Z,2.93
2024-04-18T02:50:08.121Z,2.96
2024-04-18T02:52:40.857Z,2.95
2024-04-18T02:55:08.445Z,2.82
2024-04-18T02:57:38.474Z,2.74
2024-04-18T03:00:08.154Z,2.64
2024-04-18T03:02:38.090Z,2.79
2024-04-18T03:05:05.969Z,2.79
2024-04-18T03:07:36.253Z,2.61
2024-04-18T03:10:06.823Z,2.71
2024-04-18T03:12:36.710Z,2.79
2024-04-18T03:15:05.148Z,2.79
2024-04-18T03:17:35.231Z,2.54
2024-04-18T03:20:03.045Z,2.71
2024-04-18T03:22:35.721Z,2.71
2024-04-18T03:25:06.083Z,2.71
2024-04-18T03:27:36.618Z,2.60
2024-04-18T03:30:04.622Z,2.63
2024-04-18T03:32:36.652Z,2.56
2024-04-18T03:35:04.827Z,2.49
2024-04-18T03:37:37.887Z,2.67
2024-04-18T03:40:11.979Z,2.67
2024-04-18T03:42:41.852Z,2.50
2024-04-18T03:45:11.645Z,2.40
2024-04-18T03:47:41.533Z,2.38
2024-04-18T03:50:09.229Z,2.44
2024-04-18T03:52:39.302Z,2.40
2024-04-18T03:55:11.786Z,2.32
2024-04-18T03:57:39.126Z,2.48
2024-04-18T04:00:10.922Z,2.23
2024-04-18T04:02:38.118Z,2.24
2024-04-18T04:05:08.838Z,2.08
2024-04-18T04:07:36.109Z,2.07
2024-04-18T04:10:06.054Z,2.30
2024-04-18T04:12:38.001Z,2.34
2024-04-18T04:15:08.572Z,2.42
2024-04-18T04:17:38.137Z,2.73
2024-04-18T04:20:09.141Z,2.80
2024-04-18T04:22:36.393Z,2.71
2024-04-18T04:25:06.620Z,2.91
2024-04-18T04:27:36.475Z,3.24
2024-04-18T04:30:07.054Z,3.59
2024-04-18T04:32:34.264Z,3.84
2024-04-18T04:35:04.204Z,4.45
2024-04-18T04:37:31.457Z,4.23
2024-04-18T04:40:01.514Z,4.35
2024-04-18T04:42:28.866Z,4.66
2024-04-18T04:45:01.354Z,4.41
2024-04-18T04:47:28.565Z,3.92
2024-04-18T04:49:58.507Z,3.75
2024-04-18T04:52:25.952Z,3.57
2024-04-18T04:54:55.777Z,3.56
2024-04-18T04:57:22.968Z,3.50
2024-04-18T04:59:52.752Z,3.64
2024-04-18T05:02:22.612Z,4.06
2024-04-18T05:04:53.047Z,4.09
2024-04-18T05:07:21.006Z,3.98
2024-04-18T05:09:53.334Z,4.00
2024-04-18T05:12:20.822Z,3.90
2024-04-18T05:14:50.971Z,4.56
2024-04-18T05:17:24.114Z,4.32
2024-04-18T05:19:55.363Z,4.19
2024-04-18T05:22:22.754Z,4.00
2024-04-18T05:24:52.922Z,4.51
2024-04-18T05:27:23.149Z,4.39
2024-04-18T05:30:09.463Z,4.69
2024-04-18T05:32:42.432Z,4.49
2024-04-18T05:35:13.928Z,4.43
2024-04-18T05:37:44.178Z,4.94
2024-04-18T05:40:17.664Z,4.71
2024-04-18T05:42:48.021Z,4.79
2024-04-18T05:45:18.263Z,5.16
2024-04-18T05:47:51.012Z,5.30
2024-04-18T05:50:24.090Z,5.17
2024-04-18T05:52:54.797Z,5.16
2024-04-18T05:55:25.341Z,5.29
2024-04-18T05:57:55.460Z,5.25
2024-04-18T06:00:25.789Z,5.01
2024-04-18T06:02:58.404Z,5.38
2024-04-18T06:05:28.651Z,5.35
2024-04-18T06:07:58.669Z,5.38
2024-04-18T06:10:28.932Z,5.44
2024-04-18T06:12:58.906Z,5.68
2024-04-18T06:15:29.080Z,5.68
2024-04-18T06:18:01.733Z,6.03
2024-04-18T06:20:31.765Z,5.95
2024-04-18T06:23:01.653Z,5.92
2024-04-18T06:25:32.392Z,6.14
2024-04-18T06:28:02.949Z,6.15
2024-04-18T06:30:33.196Z,6.13
2024-04-18T06:33:06.336Z,6.37
2024-04-18T06:35:36.281Z,6.38
2024-04-18T06:38:06.805Z,6.82
2024-04-18T06:40:37.073Z,6.48
2024-04-18T06:43:07.425Z,6.86
2024-04-18T06:45:39.726Z,6.95
2024-04-18T06:48:12.901Z,7.02
2024-04-18T06:50:43.625Z,7.22
2024-04-18T06:53:13.526Z,7.27
2024-04-18T06:55:43.720Z,7.15
2024-04-18T06:58:13.810Z,7.24
2024-04-18T07:00:43.932Z,7.36
2024-04-18T07:03:17.137Z,7.22
2024-04-18T07:05:47.134Z,7.25
2024-04-18T07:08:17.104Z,7.40
2024-04-18T07:10:47.094Z,7.54
2024-04-18T07:13:17.190Z,7.53
2024-04-18T07:15:50.461Z,7.59
2024-04-18T07:18:23.448Z,7.84
2024-04-18T07:20:53.446Z,7.95
2024-04-18T07:23:24.453Z,7.59
2024-04-18T07:25:54.359Z,7.77
2024-04-18T07:28:24.311Z,7.79
2024-04-18T07:30:54.507Z,8.24
2024-04-18T07:33:27.505Z,8.35
2024-04-18T07:35:58.120Z,8.35
2024-04-18T07:38:28.073Z,7.93
2024-04-18T07:40:58.305Z,7.98
2024-04-18T07:43:28.285Z,8.53
2024-04-18T07:45:58.262Z,8.24
2024-04-18T07:48:31.758Z,8.50
2024-04-18T07:51:01.738Z,8.63
2024-04-18T07:53:31.811Z,8.65
2024-04-18T07:56:02.240Z,9.16
2024-04-18T07:58:33.058Z,9.04
2024-04-18T08:01:06.818Z,9.15
2024-04-18T08:03:42.197Z,9.16
2024-04-18T08:06:21.283Z,9.11
2024-04-18T08:08:55.912Z,9.10
2024-04-18T08:14:11.923Z,9.44
2024-04-18T08:16:44.151Z,8.97
2024-04-18T08:19:14.014Z,8.97
2024-04-18T08:21:43.889Z,9.15
2024-04-18T08:24:20.242Z,9.23
2024-04-18T08:26:50.091Z,9.17
2024-04-18T08:29:23.647Z,9.20
2024-04-18T08:31:53.547Z,9.32
2024-04-18T08:34:27.253Z,9.76
2024-04-18T08:36:58.184Z,10.31
2024-04-18T08:39:28.123Z,10.09
2024-04-18T08:42:00.073Z,10.68
2024-04-18T08:44:30.234Z,10.28
2024-04-18T08:47:03.331Z,10.31
2024-04-18T08:49:37.450Z,10.13
2024-04-18T08:52:10.299Z,11.26
2024-04-18T08:54:40.325Z,11.12
2024-04-18T08:57:14.272Z,10.90
2024-04-18T08:59:47.532Z,10.66
2024-04-18T09:02:19.341Z,10.22
2024-04-18T09:04:51.932Z,10.81
2024-04-18T09:07:21.968Z,10.45
2024-04-18T09:09:54.669Z,10.86
2024-04-18T09:12:24.543Z,10.95
2024-04-18T09:14:54.399Z,10.99
2024-04-18T09:17:21.718Z,11.51
2024-04-18T09:19:54.237Z,11.86
2024-04-18T09:22:24.473Z,12.18
2024-04-18T09:24:54.373Z,11.55
2024-04-18T09:27:24.194Z,11.43
2024-04-18T09:29:54.230Z,10.80
2024-04-18T09:32:25.273Z,10.55
2024-04-18T09:35:01.039Z,10.96
2024-04-18T09:37:31.099Z,11.45
2024-04-18T09:40:03.336Z,11.80
2024-04-18T09:42:49.021Z,11.71
2024-04-18T09:45:24.529Z,11.64
2024-04-18T09:47:55.820Z,12.12
2024-04-18T09:50:31.080Z,12.16
2024-04-18T09:53:03.346Z,11.95
2024-04-18T09:55:35.052Z,11.89
2024-04-18T09:58:09.707Z,11.30
2024-04-18T10:00:38.341Z,12.13
2024-04-18T10:03:11.217Z,12.36
2024-04-18T10:05:45.452Z,12.78
2024-04-18T10:08:15.716Z,12.81
2024-04-18T10:10:47.923Z,12.19
2024-04-18T10:13:19.465Z,11.70
2024-04-18T10:15:49.969Z,11.17
2024-04-18T10:18:20.495Z,11.36
2024-04-18T10:20:57.236Z,11.29
2024-04-18T10:23:27.026Z,11.03
2024-04-18T10:26:01.518Z,10.41
2024-04-18T10:28:32.155Z,10.34
2024-04-18T10:31:06.747Z,10.20
2024-04-18T10:33:38.527Z,10.73
2024-04-18T10:36:17.002Z,11.07
2024-04-18T10:38:48.233Z,10.96
2024-04-18T10:41:17.947Z,10.22
2024-04-18T10:43:48.006Z,10.22
2024-04-18T10:46:19.773Z,10.41
2024-04-18T10:48:55.675Z,10.09
2024-04-18T10:51:30.829Z,10.21
2024-04-18T10:54:00.687Z,9.69
2024-04-18T10:56:32.677Z,10.02
2024-04-18T10:59:03.631Z,10.00
2024-04-18T11:01:40.032Z,10.33
2024-04-18T11:04:11.116Z,10.96
2024-04-18T11:06:45.240Z,11.37
2024-04-18T11:09:17.081Z,11.15
2024-04-18T11:11:47.239Z,10.88
2024-04-18T11:14:18.272Z,10.53
2024-04-18T11:16:48.537Z,10.94
2024-04-18T11:19:18.457Z,11.24
2024-04-18T11:21:51.500Z,11.35
2024-04-18T11:24:21.494Z,11.12
2024-04-18T11:26:53.291Z,10.56
2024-04-18T11:29:29.344Z,10.34
2024-04-18T11:32:09.053Z,10.34
2024-04-18T11:34:40.484Z,10.77
2024-04-18T11:37:15.911Z,11.38
2024-04-18T11:39:46.226Z,10.91
2024-04-18T11:42:16.335Z,10.97
2024-04-18T11:44:46.377Z,10.71
2024-04-18T11:47:16.472Z,10.85
2024-04-18T11:49:46.277Z,10.90
2024-04-18T11:52:18.648Z,11.44
2024-04-18T11:54:48.525Z,11.71
2024-04-18T11:57:18.366Z,11.69
2024-04-18T11:59:48.154Z,11.12
2024-04-18T12:02:17.782Z,11.56
2024-04-18T12:04:47.967Z,12.15
2024-04-18T12:07:20.573Z,12.16
2024-04-18T12:09:52.782Z,12.15
2024-04-18T12:12:24.095Z,12.95
2024-04-18T12:14:55.986Z,14.04
2024-04-18T12:17:26.173Z,13.34
2024-04-18T12:19:55.993Z,13.05
2024-04-18T12:22:28.290Z,13.01
2024-04-18T12:24:58.142Z,13.49
2024-04-18T12:27:28.122Z,12.48
2024-04-18T12:29:57.990Z,12.11
2024-04-18T12:32:27.871Z,12.31
2024-04-18T12:34:57.694Z,12.53
2024-04-18T12:37:29.972Z,12.15
2024-04-18T12:40:01.553Z,11.80
2024-04-18T12:42:31.484Z,11.69
2024-04-18T12:45:01.551Z,11.90
2024-04-18T12:47:31.496Z,12.35
2024-04-18T12:50:01.708Z,12.20
2024-04-18T12:52:34.286Z,11.92
2024-04-18T12:55:04.134Z,11.72
2024-04-18T12:57:34.040Z,11.63
2024-04-18T13:00:03.962Z,12.20
2024-04-18T13:02:33.812Z,12.31
2024-04-18T13:05:03.796Z,12.23
2024-04-18T13:07:36.357Z,11.94
2024-04-18T13:10:07.654Z,12.41
2024-04-18T13:12:37.762Z,12.31
2024-04-18T13:15:08.451Z,11.92
2024-04-18T13:17:38.278Z,12.13
2024-04-18T13:20:09.633Z,12.24
2024-04-18T13:22:42.102Z,12.21
2024-04-18T13:25:11.913Z,11.87
2024-04-18T13:27:41.965Z,11.66
2024-04-18T13:30:12.845Z,11.97
2024-04-18T13:32:42.888Z,11.85
2024-04-18T13:35:12.700Z,11.37
2024-04-18T13:37:44.985Z,11.56
2024-04-18T13:40:15.175Z,11.34
2024-04-18T13:42:42.516Z,11.41
2024-04-18T13:45:12.458Z,11.59
2024-04-18T13:47:42.440Z,11.35
2024-04-18T13:50:12.448Z,11.40
2024-04-18T13:52:45.002Z,11.54
2024-04-18T13:55:14.810Z,11.89
2024-04-18T13:57:44.726Z,11.66
2024-04-18T14:00:15.739Z,11.72
2024-04-18T14:02:46.089Z,11.92
2024-04-18T14:05:20.521Z,11.87
2024-04-18T14:07:53.097Z,11.84
2024-04-18T14:10:23.172Z,12.06
2024-04-18T14:12:53.158Z,12.18
2024-04-18T14:15:37.521Z,12.61
2024-04-18T14:18:24.347Z,12.75
2024-04-18T14:20:56.446Z,12.33
2024-04-18T14:23:28.985Z,12.54
2024-04-18T14:26:00.127Z,12.70
2024-04-18T14:28:33.294Z,13.42
2024-04-18T14:31:03.952Z,14.00
2024-04-18T14:33:34.595Z,13.88
2024-04-18T14:36:04.857Z,13.74
2024-04-18T14:38:37.465Z,14.01
2024-04-18T14:41:12.107Z,14.26
2024-04-18T14:43:44.152Z,13.75
2024-04-18T14:46:14.297Z,13.19
2024-04-18T14:48:44.440Z,12.88
2024-04-18T14:51:12.776Z,13.41
2024-04-18T14:53:45.745Z,13.30
2024-04-18T14:56:15.762Z,13.31
2024-04-18T14:58:45.758Z,13.24
2024-04-18T15:01:16.644Z,12.97
2024-04-18T15:03:46.718Z,13.08
2024-04-18T15:06:17.520Z,12.82
2024-04-18T15:08:50.367Z,12.99
2024-04-18T15:11:20.289Z,13.11
2024-04-18T15:13:50.410Z,12.94
2024-04-18T15:16:20.373Z,13.18
2024-04-18T15:18:50.443Z,12.62
2024-04-18T15:21:22.308Z,12.70
2024-04-18T15:23:54.951Z,12.98
2024-04-18T15:26:25.814Z,13.65
2024-04-18T15:28:55.930Z,13.60
2024-04-18T15:31:26.397Z,12.95
2024-04-18T15:33:53.814Z,12.91
2024-04-18T15:36:24.099Z,12.73
2024-04-18T15:38:56.716Z,13.01
2024-04-18T15:41:24.159Z,13.16
2024-04-18T15:43:55.684Z,13.20
2024-04-18T15:46:26.354Z,12.80
2024-04-18T15:48:56.577Z,13.08
2024-04-18T15:51:27.014Z,13.54
2024-04-18T15:53:59.691Z,13.45
2024-04-18T15:56:29.626Z,13.76
2024-04-18T15:59:00.751Z,13.52
2024-04-18T16:01:30.986Z,13.94
2024-04-18T16:04:01.020Z,14.72
2024-04-18T16:06:31.116Z,14.83
2024-04-18T16:09:03.718Z,14.37
2024-04-18T16:11:33.617Z,13.86
2024-04-18T16:14:05.138Z,13.91
2024-04-18T16:16:35.377Z,14.10
2024-04-18T16:19:05.801Z,14.12
2024-04-18T16:21:35.874Z,13.79
2024-04-18T16:24:09.292Z,12.64
2024-04-18T16:26:39.438Z,12.18
2024-04-18T16:29:10.181Z,12.20
2024-04-18T16:31:40.130Z,12.69
2024-04-18T16:34:10.118Z,13.02
2024-04-18T16:36:44.810Z,13.10
2024-04-18T16:39:20.555Z,13.40
2024-04-18T16:41:50.391Z,13.65
2024-04-18T16:44:20.536Z,13.69
2024-04-18T16:46:50.638Z,13.72
2024-04-18T16:49:20.696Z,13.42
2024-04-18T16:51:52.467Z,13.48
2024-04-18T16:54:25.074Z,13.21
2024-04-18T16:56:54.871Z,12.70
2024-04-18T16:59:24.775Z,12.44
2024-04-18T17:01:55.063Z,12.68
2024-04-18T17:04:25.130Z,13.08
2024-04-18T17:06:55.068Z,13.21
2024-04-18T17:09:29.912Z,13.32
2024-04-18T17:11:59.806Z,12.82
2024-04-18T17:14:29.806Z,12.18
2024-04-18T17:16:59.683Z,11.77
2024-04-18T17:19:30.730Z,11.79
2024-04-18T17:22:01.892Z,11.70
2024-04-18T17:24:34.439Z,11.57
2024-04-18T17:27:04.400Z,11.65
2024-04-18T17:29:34.304Z,11.63
2024-04-18T17:32:04.732Z,11.69
2024-04-18T17:34:34.640Z,11.73
2024-04-18T17:37:06.295Z,11.59
2024-04-18T17:39:39.040Z,11.54
2024-04-18T17:42:09.683Z,11.42
2024-04-18T17:44:39.639Z,11.38
2024-04-18T17:47:09.751Z,11.39
2024-04-18T17:49:39.766Z,11.26
2024-04-18T17:52:09.748Z,11.23
2024-04-18T17:54:42.616Z,11.23
2024-04-18T17:57:12.628Z,11.03
2024-04-18T17:59:42.632Z,10.91
2024-04-18T18:02:13.949Z,10.92
2024-04-18T18:04:43.976Z,10.84
2024-04-18T18:07:13.881Z,11.04
2024-04-18T18:09:46.718Z,11.06
2024-04-18T18:12:16.737Z,11.13
2024-04-18T18:14:48.197Z,11.00
2024-04-18T18:17:18.350Z,10.99
2024-04-18T18:19:49.708Z,11.03
2024-04-18T18:22:20.017Z,11.11
2024-04-18T18:24:52.660Z,11.03
2024-04-18T18:27:20.818Z,10.86
2024-04-18T18:30:08.947Z,11.02
2024-04-18T18:32:36.744Z,10.84
2024-04-18T18:35:09.308Z,10.63
2024-04-18T18:37:36.901Z,9.85
2024-04-18T18:40:10.836Z,9.66
2024-04-18T18:42:38.565Z,9.74
2024-04-18T18:45:11.137Z,9.75
2024-04-18T18:47:39.156Z,9.62
2024-04-18T18:50:10.904Z,9.71
2024-04-18T18:52:40.229Z,9.67
2024-04-18T18:55:12.983Z,9.65
2024-04-18T18:57:40.284Z,9.47
2024-04-18T19:00:11.730Z,9.36
2024-04-18T19:02:39.193Z,9.53
2024-04-18T19:05:10.393Z,9.54
2024-04-18T19:07:38.230Z,9.70
2024-04-18T19:10:12.173Z,9.77
2024-04-18T19:12:39.603Z,9.80
2024-04-18T19:15:11.212Z,9.64
2024-04-18T19:17:40.572Z,9.65
2024-04-18T19:20:11.457Z,9.66
2024-04-18T19:22:38.809Z,9.79
2024-04-18T19:25:08.713Z,9.79
2024-04-18T19:27:39.009Z,9.69
2024-04-18T19:30:10.804Z,9.69
2024-04-18T19:32:38.400Z,9.80
2024-04-18T19:35:11.627Z,9.88
2024-04-18T19:37:40.281Z,9.80
2024-04-18T19:40:11.811Z,9.77
2024-04-18T19:42:41.831Z,9.86
2024-04-18T19:45:11.910Z,9.73
2024-04-18T19:47:41.192Z,9.62
2024-04-18T19:50:11.288Z,9.55
2024-04-18T19:52:38.591Z,9.36
2024-04-18T19:55:08.789Z,9.40
2024-04-18T19:57:35.996Z,9.40
2024-04-18T20:00:10.087Z,9.21
2024-04-18T20:02:38.089Z,9.21
2024-04-18T20:05:09.571Z,9.19
2024-04-18T20:07:40.105Z,9.13
2024-04-18T20:10:08.256Z,8.95
2024-04-18T20:12:38.555Z,8.89
2024-04-18T20:15:09.115Z,8.78
2024-04-18T20:17:39.107Z,8.84
2024-04-18T20:20:12.890Z,8.99
2024-04-18T20:22:41.491Z,8.80
2024-04-18T20:25:12.269Z,8.74
2024-04-18T20:27:40.247Z,8.66
2024-04-18T20:30:14.199Z,8.75
2024-04-18T20:32:41.839Z,8.62
2024-04-18T20:35:11.853Z,8.56
2024-04-18T20:37:39.248Z,8.41
2024-04-18T20:40:11.193Z,8.27
2024-04-18T20:42:38.816Z,8.31
2024-04-18T20:45:12.804Z,8.27
2024-04-18T20:47:40.035Z,8.32
2024-04-18T20:50:11.313Z,8.35
2024-04-18T20:52:38.839Z,8.19
2024-04-18T20:55:09.837Z,8.10
2024-04-18T20:57:37.040Z,8.28
2024-04-18T21:00:07.955Z,8.28
2024-04-18T21:02:37.872Z,8.41
2024-04-18T21:05:10.980Z,8.30
2024-04-18T21:07:38.302Z,8.22
2024-04-18T21:10:09.001Z,8.19
2024-04-18T21:12:36.297Z,8.22
2024-04-18T21:15:06.388Z,8.18
2024-04-18T21:17:33.556Z,8.06
2024-04-18T21:20:06.414Z,8.01
2024-04-18T21:22:33.635Z,8.06
2024-04-18T21:25:03.422Z,8.13
2024-04-18T21:27:30.614Z,8.10
2024-04-18T21:30:00.386Z,8.16
2024-04-18T21:32:27.589Z,8.18
2024-04-18T21:34:57.613Z,8.11
2024-04-18T21:37:27.470Z,8.10
2024-04-18T21:39:57.410Z,7.92
2024-04-18T21:42:24.646Z,8.00
2024-04-18T21:44:54.536Z,7.92
2024-04-18T21:47:21.844Z,7.67
2024-04-18T21:49:51.719Z,7.56
2024-04-18T21:52:19.009Z,7.53
2024-04-18T21:54:51.702Z,7.48
2024-04-18T21:57:20.506Z,7.53
2024-04-18T21:59:50.414Z,7.59
2024-04-18T22:02:18.595Z,7.47
2024-04-18T22:04:48.771Z,7.44
2024-04-18T22:07:16.210Z,7.43
2024-04-18T22:09:46.166Z,7.47
2024-04-18T22:12:18.957Z,7.55
2024-04-18T22:14:48.851Z,7.35
2024-04-18T22:17:16.223Z,7.33
2024-04-18T22:19:46.054Z,7.32
2024-04-18T22:22:14.787Z,7.38
2024-04-18T22:24:44.647Z,7.26
2024-04-18T22:27:12.432Z,7.17
2024-04-18T22:29:44.886Z,7.17
2024-04-18T22:32:12.864Z,7.36
2024-04-18T22:34:43.059Z,7.40
2024-04-18T22:37:10.214Z,7.18
2024-04-18T22:39:40.192Z,7.05
2024-04-18T22:42:10.047Z,7.21
2024-04-18T22:44:37.600Z,7.21
2024-04-18T22:47:13.251Z,7.25
2024-04-18T22:49:40.742Z,7.28
2024-04-18T22:52:11.370Z,7.09
2024-04-18T22:54:38.790Z,7.03
2024-04-18T22:57:08.591Z,7.03
2024-04-18T22:59:35.733Z,7.20
2024-04-18T23:02:05.688Z,7.27
2024-04-18T23:04:35.533Z,7.14
2024-04-18T23:07:05.420Z,7.06
2024-04-18T23:09:32.747Z,7.14
2024-04-18T23:12:02.622Z,7.24
2024-04-18T23:14:29.897Z,7.10
2024-04-18T23:16:59.875Z,7.04
2024-04-18T23:19:27.217Z,6.73
2024-04-18T23:21:59.712Z,6.83
2024-04-18T23:24:26.831Z,6.76
2024-04-18T23:26:56.707Z,6.85
2024-04-18T23:29:24.654Z,6.77
2024-04-18T23:31:54.831Z,6.66
2024-04-18T23:34:22.287Z,6.74
2024-04-18T23:36:52.191Z,6.81
2024-04-18T23:39:21.999Z,6.95
2024-04-18T23:41:51.805Z,6.75
2024-04-18T23:44:19.084Z,6.79
2024-04-18T23:46:48.836Z,6.74
2024-04-18T23:49:16.124Z,6.73
2024-04-18T23:51:45.998Z,6.75
2024-04-18T23:54:13.201Z,6.82
2024-04-18T23:56:45.647Z,6.82
2024-04-18T23:59:12.796Z,6.84
